Hennepin, OK (73444)

4:58 PM CDT on April 30, 2017 (GMT -0500)
Sneed Volunteer Fire Department | | Change Station

Elev 935 ft 34.27 °N, 97.31 °W | Updated 6 minutes ago

Overcast
Overcast
54.9 °F
Feels Like 54.9 °F
N
29.0
Wind Variable Wind from SW
Gusts 45.0 mph

Today
High -- | Low -- °F
--% Chance of Precip.
Yesterday
High -- | Low -- °F
Precip. -- in
Pressure 29.68 in
Visibility 10.0 miles
Clouds Mostly Cloudy 5000 ft
Overcast 7000 ft
Dew Point 35 °F
Humidity 48%
Rainfall 0.02 in
Snow Depth Not available.
6:40 AM 8:13 PM
Waxing Crescent, 26% visible
METAR KPVJ 302155Z AUTO 26030G40KT 10SM BKN050 OVC070 11/01 A2968 RMK AO2 T01140005
Pressure 29.68 in
Visibility 10.0 miles
Clouds Mostly Cloudy 5000 ft
Overcast 7000 ft
Dew Point 35 °F
Humidity 48%
Rainfall 0.02 in
Snow Depth Not available.
6:40 AM 8:13 PM
Waxing Crescent, 26% visible
METAR KPVJ 302155Z AUTO 26030G40KT 10SM BKN050 OVC070 11/01 A2968 RMK AO2 T01140005

Get Severe Weather Alerts

Thanks for signing up!

Be on the lookout for a verification email in your inbox.

You'll start receiving the daily forecast at 8 AM.

×

10-Day Weather Forecast

Almanac

Astronomy

Apr. 30, 2017 Rise Set
Actual Time
Civil Twilight
Nautical Twilight
Astronomical Twilight
Moon
Length of Visible Light
Length of Day
Tomorrow will be .
, % of the Moon is Illuminated

Today's Extremes

State Highs State Lows

Community

WunderPhotos

WunderBlog® & News

Nearby

Air Quality

  Air Quality AQ Index Pollutant
Not available.

Snow Depth

Station Depth Elevation

Earthquake Activity

City Distance Mag. Time & Date
Minimum magnitude displayed is 2.5.

Coastal Water Temperatures

Place Temperature

Stations

Nearby Weather Stations

Station Location Temp. Windchill Dew Point Humidity Wind Precip. Elev Updated Type
                   

Watches & Warnings

There are currently no watches in effect.